TimeCDT,TemperatureF,Dew PointF,Humidity,Sea Level PressureIn,VisibilityMPH,Wind Direction,Wind SpeedMPH,Gust SpeedMPH,PrecipitationIn,Events,Conditions,WindDirDegrees,DateUTC
12:52 AM,33.1,26.1,75,30.03,10.0,West,10.4,-,N/A,,Clear,280,2013-04-19 05:52:00
1:52 AM,34.0,26.1,73,30.02,10.0,West,10.4,-,N/A,,Overcast,280,2013-04-19 06:52:00
2:52 AM,33.1,26.1,75,30.01,10.0,West,9.2,-,N/A,,Clear,280,2013-04-19 07:52:00
3:52 AM,32.0,26.1,79,30.02,10.0,West,10.4,17.3,N/A,,Clear,280,2013-04-19 08:52:00
4:52 AM,32.0,25.0,75,30.02,10.0,West,10.4,-,N/A,,Clear,280,2013-04-19 09:52:00
5:52 AM,30.9,25.0,79,30.03,10.0,West,10.4,-,N/A,,Clear,280,2013-04-19 10:52:00
6:52 AM,30.0,25.0,82,30.05,10.0,West,6.9,-,N/A,,Clear,270,2013-04-19 11:52:00
7:52 AM,33.1,25.0,72,30.06,10.0,West,9.2,-,N/A,,Clear,270,2013-04-19 12:52:00
8:52 AM,37.0,25.0,62,30.06,10.0,West,11.5,18.4,N/A,,Clear,280,2013-04-19 13:52:00
9:52 AM,41.0,24.1,51,30.07,10.0,West,9.2,16.1,N/A,,Clear,280,2013-04-19 14:52:00
10:52 AM,43.0,26.1,51,30.05,10.0,West,11.5,19.6,N/A,,Clear,280,2013-04-19 15:52:00
11:52 AM,46.9,27.0,46,30.05,10.0,West,15.0,20.7,N/A,,Overcast,270,2013-04-19 16:52:00
12:52 PM,48.0,25.0,41,30.04,10.0,WNW,13.8,19.6,N/A,,Overcast,290,2013-04-19 17:52:00
1:52 PM,53.1,28.9,40,30.04,10.0,West,16.1,24.2,N/A,,Scattered Clouds,270,2013-04-19 18:52:00
2:52 PM,52.0,27.0,38,30.03,10.0,West,13.8,23.0,N/A,,Mostly Cloudy,280,2013-04-19 19:52:00
3:52 PM,53.1,27.0,37,30.03,10.0,NW,11.5,19.6,N/A,,Mostly Cloudy,310,2013-04-19 20:52:00
4:52 PM,53.1,28.0,38,30.03,10.0,NW,6.9,17.3,N/A,,Scattered Clouds,310,2013-04-19 21:52:00
5:52 PM,55.0,28.0,35,30.03,10.0,Variable,6.9,17.3,N/A,,Partly Cloudy,0,2013-04-19 22:52:00
6:52 PM,54.0,26.1,34,30.04,10.0,NW,10.4,21.9,N/A,,Mostly Cloudy,320,2013-04-19 23:52:00
7:52 PM,50.0,27.0,41,30.05,10.0,NNW,4.6,-,N/A,,Clear,340,2013-04-20 00:52:00
8:52 PM,46.0,28.9,51,30.08,10.0,Calm,Calm,-,N/A,,Clear,0,2013-04-20 01:52:00
9:52 PM,39.9,28.9,65,30.10,10.0,North,3.5,-,N/A,,Clear,350,2013-04-20 02:52:00
10:52 PM,37.0,28.9,73,30.12,10.0,Calm,Calm,-,N/A,,Clear,0,2013-04-20 03:52:00
11:52 PM,39.0,28.9,67,30.13,10.0,North,4.6,-,N/A,,Clear,10,2013-04-20 04:52:00